Time;durP1;ratioP1;P1;durP2;ratioP2;P2;SDS_P1;SDS_P2;PMS_P1;PMS_P2;Temp;Humidity;BMP_temperature;BMP_pressure;BME280_temperature;BME280_humidity;BME280_pressure;Samples;Min_cycle;Max_cycle;Signal;HPM_P1;HPM_P2
2021/04/06 00:01:59;;;;;;;1999.90;999.90;;;;;;;2.25;100.00;-10257.81;5064227;28;20456;-28
2021/04/06 00:04:49;;;;;;;1999.90;999.90;;;;;;;2.07;100.00;-11420.91;5063281;28;20459;-27
2021/04/06 00:07:42;;;;;;;1999.90;999.90;;;;;;;2.15;100.00;-11811.50;5058793;28;20443;-28
2021/04/06 00:10:33;;;;;;;1999.90;999.90;;;;;;;2.16;100.00;-11866.16;5057342;28;20605;-28
2021/04/06 00:13:21;;;;;;;1999.90;999.90;;;;;;;2.01;100.00;-13816.78;5057183;28;20443;-28
2021/04/06 00:16:09;;;;;;;1999.90;999.90;;;;;;;2.19;100.00;-13364.28;5057398;28;20545;-28
2021/04/06 00:18:56;;;;;;;1999.90;999.90;;;;;;;2.13;100.00;-15565.91;5059650;28;20582;-27
2021/04/06 00:21:42;;;;;;;1999.90;999.90;;;;;;;2.13;100.00;-16170.41;5058408;28;20609;-28
2021/04/06 00:24:34;;;;;;;1999.90;999.90;;;;;;;2.29;100.00;-16835.69;5058926;28;20874;-28
2021/04/06 00:27:22;;;;;;;1999.90;999.90;;;;;;;2.33;100.00;-17936.28;5058195;28;20497;-28
2021/04/06 00:30:10;;;;;;;1999.90;999.90;;;;;;;2.33;100.00;-17972.81;5056760;28;20494;-27
2021/04/06 00:32:59;;;;;;;1999.90;999.90;;;;;;;2.31;100.00;-17972.41;5056371;28;20478;-28
2021/04/06 00:35:52;;;;;;;1999.90;999.90;;;;;;;2.41;100.00;-17974.97;5060749;28;20537;-27
2021/04/06 00:38:42;;;;;;;1999.90;999.90;;;;;;;2.26;100.00;-17971.06;5060211;28;20442;-28
2021/04/06 00:41:32;;;;;;;1999.90;999.90;;;;;;;2.45;100.00;-17975.91;5058881;28;20577;-27
2021/04/06 00:44:17;;;;;;;1999.90;999.90;;;;;;;2.31;100.00;-17972.41;5057400;28;20455;-28
2021/04/06 00:47:04;;;;;;;1999.90;999.90;;;;;;;2.32;100.00;-17972.69;5059840;28;20846;-28
2021/04/06 00:49:53;;;;;;;1999.90;999.90;;;;;;;2.35;100.00;-17973.34;5057413;28;20548;-27
2021/04/06 00:52:41;;;;;;;1999.90;999.90;;;;;;;2.21;100.00;-17969.72;5063882;28;20447;-27
2021/04/06 00:55:34;;;;;;;1999.90;999.90;;;;;;;2.38;100.00;-17974.28;5060939;28;20449;-27
2021/04/06 00:58:25;;;;;;;1999.90;999.90;;;;;;;2.11;100.00;-17966.88;5061340;28;20458;-27
2021/04/06 01:01:13;;;;;;;1999.90;999.90;;;;;;;2.39;100.00;-17974.56;5060369;28;20533;-28
2021/04/06 01:04:05;;;;;;;1999.90;999.90;;;;;;;2.51;100.00;-17977.66;5063563;28;20443;-27
2021/04/06 01:06:57;;;;;;;1999.90;999.90;;;;;;;2.48;100.00;-17976.84;5066123;28;20471;-27
2021/04/06 01:09:46;;;;;;;1999.90;999.90;;;;;;;2.39;100.00;-17974.44;5060167;28;20578;-27
2021/04/06 01:12:31;;;;;;;1999.90;999.90;;;;;;;2.23;100.00;-17970.13;5062523;28;20442;-27
2021/04/06 01:15:18;;;;;;;1999.90;999.90;;;;;;;2.53;100.00;-17978.06;5061175;28;20442;-27
2021/04/06 01:18:04;;;;;;;1999.90;999.90;;;;;;;2.64;100.00;-17981.00;5060446;28;20552;-28
2021/04/06 01:20:51;;;;;;;1999.90;999.90;;;;;;;2.59;100.00;-17979.66;5060101;28;20490;-28
2021/04/06 01:23:38;;;;;;;1999.90;999.90;;;;;;;2.30;100.00;-17972.00;5065623;28;20471;-27
2021/04/06 01:26:26;;;;;;;1999.90;999.90;;;;;;;2.46;100.00;-17976.16;5063227;28;20521;-28
2021/04/06 01:29:13;;;;;;;1999.90;999.90;;;;;;;2.05;100.00;-17965.53;5062181;28;20498;-27
2021/04/06 01:32:00;;;;;;;1999.90;999.90;;;;;;;2.35;100.00;-17973.34;5060705;28;20450;-27
2021/04/06 01:34:46;;;;;;;1999.90;999.90;;;;;;;1.96;100.00;-17963.00;5060154;28;20740;-28
2021/04/06 01:37:35;;;;;;;1999.90;999.90;;;;;;;2.00;100.00;-17964.06;5059778;28;20451;-27
2021/04/06 01:40:24;;;;;;;1999.90;999.90;;;;;;;2.30;100.00;-17972.13;5069196;28;20552;-27
2021/04/06 01:43:15;;;;;;;1999.90;999.90;;;;;;;1.80;100.00;-17958.69;5061528;28;20842;-27
2021/04/06 01:46:05;;;;;;;1999.90;999.90;;;;;;;2.00;100.00;-17964.06;5061415;28;20523;-28
2021/04/06 01:48:51;;;;;;;1999.90;999.90;;;;;;;1.74;100.00;-17957.19;5063426;28;20447;-27
2021/04/06 01:51:38;;;;;;;1999.90;999.90;;;;;;;1.91;100.00;-17961.78;5063159;28;20446;-28
2021/04/06 01:54:25;;;;;;;1999.90;999.90;;;;;;;1.66;100.00;-17955.19;5062960;28;20537;-27
2021/04/06 01:57:17;;;;;;;1999.90;999.90;;;;;;;1.78;100.00;-17958.28;5062453;28;20440;-27
2021/04/06 02:00:13;;;;;;;1999.90;999.90;;;;;;;1.93;100.00;-17962.31;5059656;28;20521;-27
2021/04/06 02:03:04;;;;;;;1999.90;999.90;;;;;;;1.98;100.00;-17963.53;5061831;28;20443;-27
2021/04/06 02:05:51;;;;;;;1999.90;999.90;;;;;;;1.85;100.00;-17960.03;5060141;28;20468;-27
2021/04/06 02:08:38;;;;;;;1999.90;999.90;;;;;;;1.87;100.00;-17960.56;5059377;28;20597;-27
2021/04/06 02:11:25;;;;;;;1999.90;999.90;;;;;;;2.01;100.00;-17964.34;5063557;28;20649;-27
2021/04/06 02:14:13;;;;;;;1999.90;999.90;;;;;;;1.71;100.00;-17956.53;5061000;28;20502;-27
2021/04/06 02:17:05;;;;;;;1999.90;999.90;;;;;;;1.84;100.00;-17959.75;5059870;28;20443;-28
2021/04/06 02:19:50;;;;;;;1999.90;999.90;;;;;;;1.77;100.00;-17958.00;5063042;28;20474;-27
2021/04/06 02:22:35;;;;;;;1999.90;999.90;;;;;;;1.85;100.00;-17960.16;5060172;28;20537;-27
2021/04/06 02:25:23;;;;;;;1999.90;999.90;;;;;;;1.96;100.00;-17963.13;5063503;28;20518;-27
2021/04/06 02:28:14;;;;;;;1999.90;999.90;;;;;;;1.83;100.00;-17959.50;5059773;28;20505;-27
2021/04/06 02:31:03;;;;;;;1999.90;999.90;;;;;;;1.71;100.00;-17956.53;5064964;28;20479;-27
2021/04/06 02:33:51;;;;;;;1999.90;999.90;;;;;;;1.88;100.00;-17960.84;5060213;28;20874;-28
2021/04/06 02:36:37;;;;;;;1999.90;999.90;;;;;;;2.04;100.00;-17965.13;5066043;28;20605;-27
2021/04/06 02:39:39;;;;;;;1999.90;999.90;;;;;;;1.84;100.00;-17959.88;5059427;28;20498;-28
2021/04/06 02:42:27;;;;;;;1999.90;999.90;;;;;;;1.81;100.00;-17958.94;5060081;28;20435;-27
2021/04/06 02:45:16;;;;;;;1999.90;999.90;;;;;;;1.84;100.00;-17959.75;5059799;28;20459;-27
2021/04/06 02:48:06;;;;;;;1999.90;999.90;;;;;;;1.87;100.00;-17755.78;5060387;28;20498;-27
2021/04/06 02:50:52;;;;;;;1999.90;999.90;;;;;;;2.07;100.00;-17444.34;5061666;28;20545;-27
2021/04/06 02:53:39;;;;;;;1999.90;999.90;;;;;;;2.32;100.00;-16898.38;5059708;28;20458;-27
2021/04/06 02:56:32;;;;;;;1999.90;999.90;;;;;;;1.98;100.00;-16842.91;5060850;28;20857;-27
2021/04/06 02:59:20;;;;;;;1999.90;999.90;;;;;;;2.06;100.00;-16562.50;5067476;28;20459;-27
2021/04/06 03:02:10;;;;;;;1999.90;999.90;;;;;;;1.98;100.00;-16513.63;5059613;28;20993;-27
2021/04/06 03:04:57;;;;;;;1999.90;999.90;;;;;;;1.96;100.00;-15413.66;5059548;28;20854;-27
2021/04/06 03:07:46;;;;;;;1999.90;999.90;;;;;;;1.94;100.00;-14392.63;5060871;28;20545;-27
2021/04/06 03:10:34;;;;;;;1999.90;999.90;;;;;;;2.02;100.00;-13395.72;5063892;28;20479;-27
2021/04/06 03:13:24;;;;;;;1999.90;999.90;;;;;;;2.10;100.00;-12514.81;5063990;28;20518;-27
2021/04/06 03:16:13;;;;;;;1999.90;999.90;;;;;;;1.99;100.00;-13268.75;5060387;28;20451;-27
2021/04/06 03:19:02;;;;;;;1999.90;999.90;;;;;;;2.14;100.00;-12857.63;5058203;28;20777;-27
2021/04/06 03:21:51;;;;;;;1999.90;999.90;;;;;;;2.28;100.00;-13973.41;5059014;28;20497;-27
2021/04/06 03:24:39;;;;;;;1999.90;999.90;;;;;;;2.19;100.00;-14469.72;5062720;28;20443;-27
2021/04/06 03:27:29;;;;;;;1999.90;999.90;;;;;;;1.91;100.00;-15546.25;5061944;28;20442;-27
2021/04/06 03:30:31;;;;;;;1999.90;999.90;;;;;;;2.24;100.00;-15355.34;5058923;28;20478;-27
2021/04/06 03:33:19;;;;;;;1999.90;999.90;;;;;;;2.01;100.00;-17207.47;5059876;28;20986;-27
2021/04/06 03:36:06;;;;;;;1999.90;999.90;;;;;;;2.07;100.00;-17694.38;5058590;28;20442;-27
2021/04/06 03:38:54;;;;;;;1999.90;999.90;;;;;;;2.08;100.00;-17966.34;5059152;28;20443;-27
2021/04/06 03:41:41;;;;;;;1999.90;999.90;;;;;;;2.15;100.00;-17968.09;5060091;28;20444;-27
2021/04/06 03:44:29;;;;;;;1999.90;999.90;;;;;;;1.94;100.00;-17962.59;5058359;28;20525;-27
2021/04/06 03:47:14;;;;;;;1999.90;999.90;;;;;;;2.01;100.00;-17964.34;5062335;28;20466;-27
2021/04/06 03:50:00;;;;;;;1999.90;999.90;;;;;;;1.99;100.00;-17811.09;5058295;28;20762;-27
2021/04/06 03:53:00;;;;;;;1999.90;999.90;;;;;;;1.87;100.00;-11182.19;5062214;28;20838;-27
2021/04/06 03:56:02;;;;;;;1999.90;999.90;;;;;;;1.86;100.00;8989.94;5058421;28;20459;-27
2021/04/06 03:58:53;;;;;;;1999.90;999.90;;;;;;;1.81;100.00;5681.41;5057963;28;20984;-27
2021/04/06 04:01:39;;;;;;;1999.90;999.90;;;;;;;1.88;100.00;4868.16;5059169;28;20537;-27
2021/04/06 04:04:25;;;;;;;1999.90;999.90;;;;;;;2.12;100.00;5154.75;5062963;28;20553;-27
2021/04/06 04:07:12;;;;;;;1999.90;999.90;;;;;;;1.84;100.00;2292.25;5058469;28;20627;-27
2021/04/06 04:09:58;;;;;;;1999.90;999.90;;;;;;;1.81;100.00;2491.06;5057678;28;21450;-27
2021/04/06 04:12:44;;;;;;;1999.90;999.90;;;;;;;1.89;100.00;2499.09;5057205;28;20442;-27
2021/04/06 04:15:32;;;;;;;1999.90;999.90;;;;;;;1.70;100.00;8.91;5058305;28;20512;-27
2021/04/06 04:18:18;;;;;;;1999.90;999.90;;;;;;;1.82;100.00;792.44;5060719;28;20489;-27
2021/04/06 04:21:03;;;;;;;1999.90;999.90;;;;;;;1.85;100.00;233.13;5057616;28;20447;-27
2021/04/06 04:23:49;;;;;;;1999.90;999.90;;;;;;;1.71;100.00;-478.19;5057588;28;20463;-27
2021/04/06 04:26:35;;;;;;;1999.90;999.90;;;;;;;1.86;100.00;1409.38;5056684;28;20506;-27
2021/04/06 04:29:21;;;;;;;1999.90;999.90;;;;;;;1.80;100.00;1023.59;5057638;28;20447;-27
2021/04/06 04:32:13;;;;;;;1999.90;999.90;;;;;;;2.14;100.00;1978.19;5058441;28;20470;-27
2021/04/06 04:34:58;;;;;;;1999.90;999.90;;;;;;;1.85;100.00;-1352.81;5056505;28;20446;-27
2021/04/06 04:37:44;;;;;;;1999.90;999.90;;;;;;;2.07;100.00;-462.50;5056898;28;20442;-27
2021/04/06 04:40:35;;;;;;;1999.90;999.90;;;;;;;1.76;100.00;-2841.06;5057217;28;20872;-27
2021/04/06 04:43:20;;;;;;;1999.90;999.90;;;;;;;2.01;100.00;-3122.28;5060298;28;20541;-27
2021/04/06 04:46:07;;;;;;;1999.90;999.90;;;;;;;2.09;100.00;-2906.25;5056543;28;20442;-27
2021/04/06 04:48:53;;;;;;;1999.90;999.90;;;;;;;1.86;100.00;-4900.22;5056842;28;20517;-27
2021/04/06 04:51:38;;;;;;;1999.90;999.90;;;;;;;1.62;100.00;-6154.72;5057468;28;20542;-27
2021/04/06 04:54:24;;;;;;;1999.90;999.90;;;;;;;2.10;100.00;-3420.69;5058528;28;20613;-27
2021/04/06 04:57:10;;;;;;;1999.90;999.90;;;;;;;2.00;100.00;-5501.94;5060399;28;20490;-27
2021/04/06 04:59:55;;;;;;;1999.90;999.90;;;;;;;1.76;100.00;-7895.00;5057035;28;20438;-27
2021/04/06 05:02:42;;;;;;;1999.90;999.90;;;;;;;1.85;100.00;-6143.91;5056771;28;20450;-27
2021/04/06 05:05:28;;;;;;;1999.90;999.90;;;;;;;2.31;100.00;-6167.06;5057107;28;20447;-28
2021/04/06 05:08:14;;;;;;;1999.90;999.90;;;;;;;2.33;100.00;-10124.94;5056751;28;20473;-28
2021/04/06 05:10:59;;;;;;;1999.90;999.90;;;;;;;2.22;100.00;-12437.59;5057898;28;20474;-28
2021/04/06 05:13:46;;;;;;;1999.90;999.90;;;;;;;1.94;100.00;-12841.56;5057540;28;20858;-27
2021/04/06 05:16:32;;;;;;;1999.90;999.90;;;;;;;2.22;100.00;-11361.28;5058922;28;20949;-27
2021/04/06 05:19:19;;;;;;;1999.90;999.90;;;;;;;2.44;100.00;-12431.47;5056761;28;20475;-28
2021/04/06 05:22:05;;;;;;;1999.90;999.90;;;;;;;2.14;100.00;-15296.22;5056466;28;20438;-27
2021/04/06 05:24:51;;;;;;;1999.90;999.90;;;;;;;2.09;100.00;-15200.97;5058967;28;20482;-27
2021/04/06 05:27:36;;;;;;;1999.90;999.90;;;;;;;2.04;100.00;-15764.69;5058543;28;20442;-27
2021/04/06 05:30:23;;;;;;;1999.90;999.90;;;;;;;2.35;100.00;-15238.97;5059053;28;20668;-27
2021/04/06 05:33:09;;;;;;;1999.90;999.90;;;;;;;2.05;100.00;-16153.75;5060194;28;20649;-28
2021/04/06 05:35:55;;;;;;;1999.90;999.90;;;;;;;2.18;100.00;-15857.03;5062141;28;20446;-28
2021/04/06 05:38:40;;;;;;;1999.90;999.90;;;;;;;2.04;100.00;-16888.97;5058593;28;20455;-27
2021/04/06 05:41:27;;;;;;;1999.90;999.90;;;;;;;2.14;100.00;-16604.09;5061416;28;20544;-27
2021/04/06 05:44:12;;;;;;;1999.90;999.90;;;;;;;2.30;100.00;-17108.41;5062527;28;20450;-28
2021/04/06 05:47:03;;;;;;;1999.90;999.90;;;;;;;2.42;100.00;-17577.06;5062295;28;20601;-28
2021/04/06 05:49:49;;;;;;;1999.90;999.90;;;;;;;2.56;100.00;-17978.88;5062902;28;20897;-27
2021/04/06 05:52:39;;;;;;;1999.90;999.90;;;;;;;2.20;100.00;-17969.31;5059833;28;20521;-28
2021/04/06 05:55:32;;;;;;;1999.90;999.90;;;;;;;2.56;100.00;-17978.88;5062065;28;20443;-27
2021/04/06 05:58:24;;;;;;;1999.90;999.90;;;;;;;2.87;100.00;-17987.06;5060748;28;20542;-27
2021/04/06 06:01:10;;;;;;;1999.90;999.90;;;;;;;2.79;100.00;-17985.06;5061333;28;20525;-28
2021/04/06 06:04:02;;;;;;;1999.90;999.90;;;;;;;2.70;100.00;-17982.63;5059931;28;20451;-28
2021/04/06 06:06:47;;;;;;;1999.90;999.90;;;;;;;2.52;100.00;-17977.78;5060032;28;20515;-28
2021/04/06 06:09:36;;;;;;;1999.90;999.90;;;;;;;2.56;100.00;-17979.00;5060344;28;20545;-28
2021/04/06 06:12:22;;;;;;;1999.90;999.90;;;;;;;2.42;100.00;-17975.38;5059814;28;20443;-27
2021/04/06 06:15:12;;;;;;;1999.90;999.90;;;;;;;2.44;100.00;-17975.75;5063254;28;20466;-28
2021/04/06 06:18:02;;;;;;;1999.90;999.90;;;;;;;2.19;100.00;-17969.03;5059422;28;20642;-27
2021/04/06 06:20:53;;;;;;;1999.90;999.90;;;;;;;2.46;100.00;-17976.31;5019018;28;20448;-28
2021/04/06 06:23:39;;;;;;;1999.90;999.90;;;;;;;2.39;100.00;-17974.56;5021027;28;20445;-27
2021/04/06 06:26:34;;;;;;;1999.90;999.90;;;;;;;2.85;100.00;-17986.66;5020378;28;20460;-28
2021/04/06 06:29:22;;;;;;;1999.90;999.90;;;;;;;2.68;100.00;-17982.09;5020797;28;20445;-28
2021/04/06 06:32:21;;;;;;;1999.90;999.90;;;;;;;3.01;100.00;-17990.97;5019915;28;20483;-28
2021/04/06 06:35:09;;;;;;;1999.90;999.90;;;;;;;2.96;100.00;-17989.63;5019670;28;20599;-28
2021/04/06 06:37:58;;;;;;;1999.90;999.90;;;;;;;2.56;100.00;-17979.00;5020149;28;20913;-28
2021/04/06 06:40:45;;;;;;;1999.90;999.90;;;;;;;2.75;100.00;-17984.09;5006717;28;20457;-28
2021/04/06 06:43:32;;;;;;;1999.90;999.90;;;;;;;3.14;100.00;-17994.19;5000138;28;20473;-28
2021/04/06 06:46:19;;;;;;;1999.90;999.90;;;;;;;3.10;100.00;-17993.25;4999127;28;20728;-28
2021/04/06 06:49:08;;;;;;;1999.90;999.90;;;;;;;2.78;100.00;-17984.66;5000185;28;20536;-28
2021/04/06 06:51:53;;;;;;;1999.90;999.90;;;;;;;2.82;100.00;-17985.84;4999649;28;20450;-28
2021/04/06 06:54:42;;;;;;;1999.90;999.90;;;;;;;3.97;100.00;-18016.25;4999800;28;20445;-28
2021/04/06 06:57:33;;;;;;;1999.90;999.90;;;;;;;4.29;100.00;-18024.84;5000097;28;20285;-29
2021/04/06 07:00:21;;;;;;;1999.90;999.90;;;;;;;3.26;100.00;-17997.56;4999729;28;20207;-28
2021/04/06 07:03:14;;;;;;;1999.90;999.90;;;;;;;3.76;100.00;-18010.88;4999358;28;20198;-29
2021/04/06 07:06:25;;;;;;;1999.90;999.90;;;;;;;5.22;100.00;-18049.28;4999809;28;20206;-29
2021/04/06 07:09:23;;;;;;;1999.90;999.90;;;;;;;4.47;100.00;-18029.53;5002783;28;20281;-29
2021/04/06 07:12:12;;;;;;;1999.90;999.90;;;;;;;3.89;100.00;-18014.22;5002271;28;20207;-30
2021/04/06 07:15:03;;;;;;;1999.90;999.90;;;;;;;3.85;100.00;-18013.00;4999558;28;20666;-30
2021/04/06 07:18:00;;;;;;;1999.90;999.90;;;;;;;3.15;100.00;-17994.47;4999756;28;20210;-29
2021/04/06 07:20:52;;;;;;;1999.90;999.90;;;;;;;3.29;100.00;-17998.22;5000087;28;20483;-30
2021/04/06 07:23:47;;;;;;;1999.90;999.90;;;;;;;3.05;100.00;-17992.03;5002647;28;20449;-31
2021/04/06 07:26:38;;;;;;;1999.90;999.90;;;;;;;3.64;100.00;-18007.63;5000950;28;20501;-30
2021/04/06 07:29:27;;;;;;;1999.90;999.90;;;;;;;4.99;100.00;-18043.38;4998959;28;20446;-30
2021/04/06 07:32:14;;;;;;;1999.90;999.90;;;;;;;5.58;100.00;-18058.94;4999467;28;20366;-30
2021/04/06 07:35:00;;;;;;;1999.90;999.90;;;;;;;5.83;100.00;-18065.66;5000011;28;20292;-30
2021/04/06 07:37:47;;;;;;;1999.90;999.90;;;;;;;5.42;100.00;-18054.66;5000487;28;20214;-30
2021/04/06 07:40:38;;;;;;;1999.90;999.90;;;;;;;4.87;100.00;-18040.00;4999077;28;20495;-30
2021/04/06 07:43:27;;;;;;;1999.90;999.90;;;;;;;5.09;100.00;-18046.06;4998585;28;20194;-30
2021/04/06 07:46:40;;;;;;;1999.90;999.90;;;;;;;5.38;100.00;-18053.72;4997840;28;20361;-30
2021/04/06 07:49:35;;;;;;;1999.90;999.90;;;;;;;5.93;100.00;-18068.22;5001369;28;20277;-30
2021/04/06 07:52:26;;;;;;;1999.90;999.90;;;;;;;6.05;100.00;-18071.44;4998433;28;20265;-30
2021/04/06 07:55:13;;;;;;;1999.90;999.90;;;;;;;6.27;100.00;-18077.06;4998085;28;20206;-30
2021/04/06 07:57:58;;;;;;;1999.90;999.90;;;;;;;4.47;100.00;-18029.53;5000852;28;20558;-30
2021/04/06 08:01:11;;;;;;;1999.90;999.90;;;;;;;5.58;100.00;-18058.81;4998746;28;20202;-30
2021/04/06 08:04:47;;;;;;;1999.90;999.90;;;;;;;5.19;100.00;-18048.75;4999472;28;20276;-30
2021/04/06 08:07:35;;;;;;;1999.90;999.90;;;;;;;4.61;100.00;-18033.16;4999250;28;20296;-31
2021/04/06 08:10:42;;;;;;;1999.90;999.90;;;;;;;4.01;100.00;-18017.44;4997496;28;20631;-30
2021/04/06 08:13:28;;;;;;;1999.90;999.90;;;;;;;3.50;100.00;-18003.88;4998401;28;20210;-30
2021/04/06 08:16:15;;;;;;;1999.90;999.90;;;;;;;3.47;100.00;-18003.06;4999577;28;20199;-30
2021/04/06 08:19:06;;;;;;;1999.90;999.90;;;;;;;3.40;100.00;-18001.19;5020005;28;20318;-30
2021/04/06 08:22:21;;;;;;;1999.90;999.90;;;;;;;3.73;100.00;-18009.91;5038178;28;20697;-31
2021/04/06 08:25:44;;;;;;;1999.90;999.90;;;;;;;2.57;100.00;-17979.13;5038715;28;20447;-30
2021/04/06 08:28:39;;;;;;;1999.90;999.90;;;;;;;2.65;100.00;-17981.28;5039580;28;20464;-30
2021/04/06 08:31:47;;;;;;;1999.90;999.90;;;;;;;2.93;100.00;-17988.81;5037014;28;20480;-30
2021/04/06 08:34:35;;;;;;;1999.90;999.90;;;;;;;3.48;100.00;-18003.34;5039548;28;20440;-31
2021/04/06 08:37:34;;;;;;;1999.90;999.90;;;;;;;5.01;100.00;-18043.91;5059772;28;20457;-30
2021/04/06 08:40:45;;;;;;;1999.90;999.90;;;;;;;6.06;100.00;-18071.69;5057691;28;20201;-31
2021/04/06 08:43:38;;;;;;;1999.90;999.90;;;;;;;6.40;100.00;-18080.69;5057119;28;20550;-31
2021/04/06 08:46:27;;;;;;;1999.90;999.90;;;;;;;6.33;100.00;-18078.81;5056318;28;20217;-30
2021/04/06 08:49:18;;;;;;;1999.90;999.90;;;;;;;5.85;100.00;-18066.06;5056839;28;20201;-30
2021/04/06 08:52:16;;;;;;;1999.90;999.90;;;;;;;4.97;100.00;-18042.84;5057619;28;20595;-31
2021/04/06 08:55:07;;;;;;;1999.90;999.90;;;;;;;4.64;100.00;-18034.09;5047548;28;20220;-31
2021/04/06 08:57:57;;;;;;;1999.90;999.90;;;;;;;4.03;100.00;-18017.84;5037486;28;20205;-30
2021/04/06 09:00:43;;;;;;;1999.90;999.90;;;;;;;4.07;100.00;-18018.94;5038030;28;20197;-31
2021/04/06 09:03:29;;;;;;;1999.90;999.90;;;;;;;4.41;100.00;-18027.91;5036637;28;20205;-31
2021/04/06 09:06:15;;;;;;;1999.90;999.90;;;;;;;4.20;100.00;-18022.28;5036151;28;20193;-30
2021/04/06 09:09:00;;;;;;;1999.90;999.90;;;;;;;4.44;100.00;-18028.72;5036717;28;20320;-31
2021/04/06 09:11:48;;;;;;;1999.90;999.90;;;;;;;3.89;100.00;-18014.22;5043593;28;20528;-30
2021/04/06 09:14:36;;;;;;;1999.90;999.90;;;;;;;4.10;100.00;-18019.88;5041133;28;20260;-30
2021/04/06 09:17:27;;;;;;;1999.90;999.90;;;;;;;4.25;100.00;-18023.63;5040587;28;20198;-31
2021/04/06 09:20:15;;;;;;;1999.90;999.90;;;;;;;5.70;100.00;-18062.16;5039759;28;20740;-30
2021/04/06 09:23:06;;;;;;;1999.90;999.90;;;;;;;4.59;100.00;-18032.63;5039206;28;20206;-30
2021/04/06 09:25:52;;;;;;;1999.90;999.90;;;;;;;4.74;100.00;-18036.78;5045359;28;20197;-30
2021/04/06 09:28:38;;;;;;;1999.90;999.90;;;;;;;5.99;100.00;-18069.69;5040501;28;20201;-30
2021/04/06 09:31:27;;;;;;;1999.90;999.90;;;;;;;6.39;100.00;-18080.28;5039849;28;20322;-30
2021/04/06 09:34:16;;;;;;;1999.90;999.90;;;;;;;6.12;100.00;-18073.16;5040270;28;20241;-31
2021/04/06 09:37:04;;;;;;;1999.90;999.90;;;;;;;7.73;100.00;-18115.81;5039531;28;20296;-30
2021/04/06 09:39:54;;;;;;;1999.90;999.90;;;;;;;7.15;100.00;-18100.53;5039385;28;20293;-31
2021/04/06 09:42:42;;;;;;;1999.90;999.90;;;;;;;5.80;98.04;-18064.84;5039063;28;20489;-30
2021/04/06 09:45:29;;;;;;;1999.90;999.90;;;;;;;6.41;85.43;-18080.94;5043212;28;20198;-30
2021/04/06 09:48:17;;;;;;;1999.90;999.90;;;;;;;6.59;90.20;-18085.66;5042002;28;20206;-30
2021/04/06 09:51:05;;;;;;;1999.90;999.90;;;;;;;6.19;93.21;-18075.06;5040860;28;20225;-30
2021/04/06 09:53:50;;;;;;;1999.90;999.90;;;;;;;5.63;100.00;-18060.28;5039324;28;20371;-28
2021/04/06 09:56:39;;;;;;;1999.90;999.90;;;;;;;6.37;100.00;-18079.88;5039418;28;20491;-29
2021/04/06 09:59:26;;;;;;;1999.90;999.90;;;;;;;7.10;100.00;-18099.19;5039855;28;20196;-29
2021/04/06 10:02:16;;;;;;;1999.90;999.90;;;;;;;7.79;100.00;-18117.28;5039156;28;20197;-29
2021/04/06 10:05:03;;;;;;;1999.90;999.90;;;;;;;5.74;100.00;-18063.09;5047887;28;20504;-29
2021/04/06 10:07:50;;;;;;;1999.90;999.90;;;;;;;6.24;100.00;-18076.38;5039039;28;20228;-29
2021/04/06 10:10:36;;;;;;;1999.90;999.90;;;;;;;6.73;94.64;-18089.28;5039546;28;20225;-29
2021/04/06 10:13:27;;;;;;;1999.90;999.90;;;;;;;6.44;92.98;-18081.63;5039522;28;20196;-29
2021/04/06 10:16:16;;;;;;;1999.90;999.90;;;;;;;6.45;97.64;-18081.88;5038972;28;20212;-29
2021/04/06 10:19:18;;;;;;;1999.90;999.90;;;;;;;5.10;100.00;-18046.31;5040474;28;20330;-29
2021/04/06 10:22:10;;;;;;;1999.90;999.90;;;;;;;4.92;100.00;-18041.34;5040445;28;20216;-29
2021/04/06 10:24:59;;;;;;;1999.90;999.90;;;;;;;4.20;100.00;-18022.28;5037201;28;20193;-29
2021/04/06 10:27:47;;;;;;;1999.90;999.90;;;;;;;3.91;100.00;-18014.63;5039582;28;20201;-29
2021/04/06 10:30:36;;;;;;;1999.90;999.90;;;;;;;4.10;100.00;-18019.72;5043352;28;20497;-29
2021/04/06 10:33:28;;;;;;;1999.90;999.90;;;;;;;4.07;100.00;-18019.06;5043284;28;20480;-29
2021/04/06 10:36:21;;;;;;;1999.90;999.90;;;;;;;3.71;100.00;-18009.38;5039529;28;20197;-30
2021/04/06 10:39:18;;;;;;;1999.90;999.90;;;;;;;3.71;100.00;-18009.53;5039061;28;20260;-29
2021/04/06 10:42:05;;;;;;;1999.90;999.90;;;;;;;2.83;100.00;-17986.13;5039456;28;20248;-29
2021/04/06 10:44:50;;;;;;;1999.90;999.90;;;;;;;3.28;100.00;-17997.97;5054312;28;20208;-29
2021/04/06 10:47:36;;;;;;;1999.90;999.90;;;;;;;3.77;100.00;-18011.13;5058600;28;20509;-29
2021/04/06 10:50:28;;;;;;;1999.90;999.90;;;;;;;4.35;100.00;-18026.31;5056963;28;20196;-29
2021/04/06 10:53:21;;;;;;;1999.90;999.90;;;;;;;3.81;100.00;-18012.06;5062148;28;20499;-28
2021/04/06 10:56:11;;;;;;;1999.90;999.90;;;;;;;4.29;100.00;-18024.69;5050675;28;20205;-29
2021/04/06 10:58:58;;;;;;;1999.90;999.90;;;;;;;4.42;100.00;-18028.31;5061096;28;20442;-29
2021/04/06 11:01:48;;;;;;;1999.90;999.90;;;;;;;4.86;100.00;-18039.88;5053044;28;20193;-29
2021/04/06 11:04:39;;;;;;;1999.90;999.90;;;;;;;4.41;100.00;-18028.06;5049749;28;20217;-29
2021/04/06 11:07:34;;;;;;;1999.90;999.90;;;;;;;5.66;100.00;-18060.97;5042537;28;20259;-29
2021/04/06 11:10:26;;;;;;;1999.90;999.90;;;;;;;5.61;100.00;-18059.63;5039332;28;20303;-29
2021/04/06 11:13:29;;;;;;;1999.90;999.90;;;;;;;6.26;100.00;-18076.94;5059977;28;20223;-29
2021/04/06 11:16:20;;;;;;;1999.90;999.90;;;;;;;7.21;100.00;-18102.13;5042323;28;20356;-29
2021/04/06 11:19:08;;;;;;;1999.90;999.90;;;;;;;5.46;100.00;-18055.72;5052585;28;20236;-29
2021/04/06 11:21:58;;;;;;;1999.90;999.90;;;;;;;6.34;100.00;-18078.94;5053282;28;20196;-29
2021/04/06 11:24:47;;;;;;;1999.90;999.90;;;;;;;6.47;100.00;-18082.56;5038442;28;20198;-29
2021/04/06 11:27:35;;;;;;;1999.90;999.90;;;;;;;6.12;100.00;-18073.31;5056261;28;20275;-29
2021/04/06 11:30:24;;;;;;;1999.90;999.90;;;;;;;5.64;100.00;-18060.41;5048937;28;20217;-29
2021/04/06 11:33:10;;;;;;;1999.90;999.90;;;;;;;4.49;100.00;-18030.06;5057544;28;20294;-29
2021/04/06 11:35:59;;;;;;;1999.90;999.90;;;;;;;6.61;100.00;-18086.19;5053745;28;20200;-29
2021/04/06 11:38:47;;;;;;;1999.90;999.90;;;;;;;6.69;100.00;-18088.34;5053115;28;20621;-29
2021/04/06 11:41:35;;;;;;;1999.90;999.90;;;;;;;4.98;100.00;-18043.09;5055571;28;20200;-29
2021/04/06 11:44:21;;;;;;;1999.90;999.90;;;;;;;5.67;100.00;-18061.34;5044860;28;20200;-29
2021/04/06 11:47:08;;;;;;;1999.90;999.90;;;;;;;5.18;100.00;-18048.47;5041543;28;20736;-29
2021/04/06 11:49:54;;;;;;;1999.90;999.90;;;;;;;4.93;100.00;-18041.63;5037904;28;20212;-29
2021/04/06 11:52:39;;;;;;;1999.90;999.90;;;;;;;4.94;100.00;-18041.91;5057912;28;20288;-29
2021/04/06 11:55:26;;;;;;;1999.90;999.90;;;;;;;4.59;100.00;-18032.75;5043969;28;20710;-29
2021/04/06 11:58:15;;;;;;;1999.90;999.90;;;;;;;3.59;100.00;-18006.28;5051380;28;20199;-29
2021/04/06 12:01:01;;;;;;;1999.90;999.90;;;;;;;4.06;100.00;-18018.66;5050798;28;20230;-28
2021/04/06 12:03:50;;;;;;;1999.90;999.90;;;;;;;4.10;100.00;-18019.88;5041052;28;20226;-28
2021/04/06 12:06:39;;;;;;;1999.90;999.90;;;;;;;4.53;100.00;-18031.00;5038796;28;20201;-29
2021/04/06 12:09:24;;;;;;;1999.90;999.90;;;;;;;5.24;100.00;-18049.81;5037540;28;20475;-30
2021/04/06 12:12:15;;;;;;;1999.90;999.90;;;;;;;6.25;100.00;-18076.66;5039119;28;20228;-29
2021/04/06 12:15:00;;;;;;;1999.90;999.90;;;;;;;6.80;100.00;-18091.16;5036401;28;20612;-29
2021/04/06 12:17:50;;;;;;;1999.90;999.90;;;;;;;6.69;100.00;-18088.34;5036515;28;20277;-29
2021/04/06 12:20:38;;;;;;;1999.90;999.90;;;;;;;7.81;100.00;-18117.94;5036943;28;20303;-29
2021/04/06 12:23:24;;;;;;;1999.90;999.90;;;;;;;8.26;100.00;-18129.75;5036476;28;20196;-30
2021/04/06 12:26:10;;;;;;;1999.90;999.90;;;;;;;8.85;91.38;-18145.41;5036673;28;20283;-29